La Habra, California
Current Conditions -  °F | °C
As of 1:53 PM on Tuesday 25 Nov 2014 (Local Time) from KFUL Reporting Station
Clear Clear  
Wind Chill: 82°   Ceiling: Unl
Heat Index: 82°   Visibility: 10mi
Dew Point:   Wind: 5mph
Humidity: 6%   Direction: NA
Pressure: 30.25"   Gusts: NA
Location:  33.93°N, 117.94°W
Report Text: KFUL 252153Z VRB04KT 10SM CLR 28/M14 A3025 RMK AO2 SLP241 T02781139
Loading
Personal Weather Stations






























Interactive Weather Map New forecast layout! Learn more

10-Day Weather Forecast

Advertisements
Track Severe Weather on mobile